West Valley Falls, New York
Current Conditions -  °F | °C
As of 6:12 AM on Sunday 23 Nov 2014 (Local Time) from KDDH Reporting Station
Haze Haze  
Wind Chill: 38°   Ceiling: 3100
Heat Index: 38°   Visibility: 1.2mi
Dew Point: 36°   Wind: 0mph
Humidity: 93%   Direction: NA
Pressure: 30.07"   Gusts: NA
Location:  42.8614°N, 73.5395°W
Report Text: KDDH 231112Z AUTO 00000KT 1 1/4SM BR OVC031 03/02 A3007 RMK AO2 T00330022
Loading
Personal Weather Stations






























Interactive Weather Map New forecast layout! Learn more

10-Day Weather Forecast

Advertisements
Track Severe Weather on mobile